sensor_id;sensor_type;location;lat;lon;timestamp;pressure;altitude;pressure_sealevel;temperature;humidity
17781;BME280;8498;52.516;13.790;2023-02-04T00:01:45;101620.03;;;5.30;80.84
17781;BME280;8498;52.516;13.790;2023-02-04T00:07:07;101645.38;;;5.34;81.31
17781;BME280;8498;52.516;13.790;2023-02-04T00:12:30;101667.59;;;5.25;80.22
17781;BME280;8498;52.516;13.790;2023-02-04T00:17:52;101690.25;;;5.31;80.44
17781;BME280;8498;52.516;13.790;2023-02-04T00:23:14;101707.06;;;5.27;80.33
17781;BME280;8498;52.516;13.790;2023-02-04T00:28:37;101724.03;;;5.18;80.03
17781;BME280;8498;52.516;13.790;2023-02-04T00:33:59;101738.84;;;5.21;81.16
17781;BME280;8498;52.516;13.790;2023-02-04T00:39:21;101767.19;;;5.12;82.08
17781;BME280;8498;52.516;13.790;2023-02-04T00:44:44;101788.34;;;5.09;83.45
17781;BME280;8498;52.516;13.790;2023-02-04T00:50:07;101807.66;;;4.77;85.83
17781;BME280;8498;52.516;13.790;2023-02-04T00:55:29;101853.38;;;4.73;86.10
17781;BME280;8498;52.516;13.790;2023-02-04T01:00:52;101858.88;;;4.64;84.98
17781;BME280;8498;52.516;13.790;2023-02-04T01:06:15;101879.84;;;4.67;84.26
17781;BME280;8498;52.516;13.790;2023-02-04T01:11:37;101909.88;;;4.59;81.81
17781;BME280;8498;52.516;13.790;2023-02-04T01:17:00;101930.19;;;4.54;82.09
17781;BME280;8498;52.516;13.790;2023-02-04T01:22:23;101949.78;;;4.40;81.70
17781;BME280;8498;52.516;13.790;2023-02-04T01:27:45;101974.31;;;4.42;81.76
17781;BME280;8498;52.516;13.790;2023-02-04T01:33:07;101982.38;;;4.35;81.11
17781;BME280;8498;52.516;13.790;2023-02-04T01:38:30;101998.25;;;4.30;81.17
17781;BME280;8498;52.516;13.790;2023-02-04T01:43:52;102011.75;;;4.15;81.61
17781;BME280;8498;52.516;13.790;2023-02-04T01:49:15;102031.19;;;4.05;81.72
17781;BME280;8498;52.516;13.790;2023-02-04T01:54:38;102047.94;;;4.02;81.84
17781;BME280;8498;52.516;13.790;2023-02-04T02:00:01;102063.78;;;3.96;82.09
17781;BME280;8498;52.516;13.790;2023-02-04T02:05:48;102085.91;;;3.85;81.80
17781;BME280;8498;52.516;13.790;2023-02-04T02:11:12;102107.06;;;3.79;82.07
17781;BME280;8498;52.516;13.790;2023-02-04T02:16:34;102115.88;;;3.76;82.23
17781;BME280;8498;52.516;13.790;2023-02-04T02:22:03;102136.19;;;3.66;82.64
17781;BME280;8498;52.516;13.790;2023-02-04T02:27:26;102146.88;;;3.56;82.77
17781;BME280;8498;52.516;13.790;2023-02-04T02:32:51;102175.75;;;3.57;83.38
17781;BME280;8498;52.516;13.790;2023-02-04T02:38:15;102185.34;;;3.60;83.53
17781;BME280;8498;52.516;13.790;2023-02-04T02:43:38;102204.34;;;3.77;84.03
17781;BME280;8498;52.516;13.790;2023-02-04T02:49:01;102207.84;;;3.78;83.22
17781;BME280;8498;52.516;13.790;2023-02-04T02:54:27;102217.66;;;3.65;83.50
17781;BME280;8498;52.516;13.790;2023-02-04T02:59:53;102227.34;;;3.63;83.92
17781;BME280;8498;52.516;13.790;2023-02-04T03:05:15;102249.31;;;3.57;84.39
17781;BME280;8498;52.516;13.790;2023-02-04T03:10:38;102261.72;;;3.48;85.09
17781;BME280;8498;52.516;13.790;2023-02-04T03:16:01;102280.16;;;3.43;85.98
17781;BME280;8498;52.516;13.790;2023-02-04T03:21:25;102296.00;;;3.39;86.85
17781;BME280;8498;52.516;13.790;2023-02-04T03:26:47;102308.34;;;3.32;87.30
17781;BME280;8498;52.516;13.790;2023-02-04T03:32:11;102332.88;;;3.29;87.48
17781;BME280;8498;52.516;13.790;2023-02-04T03:37:33;102346.06;;;3.25;88.45
17781;BME280;8498;52.516;13.790;2023-02-04T03:42:55;102354.91;;;3.18;88.11
17781;BME280;8498;52.516;13.790;2023-02-04T03:48:18;102377.69;;;3.13;89.36
17781;BME280;8498;52.516;13.790;2023-02-04T03:53:40;102389.22;;;3.00;89.71
17781;BME280;8498;52.516;13.790;2023-02-04T03:59:02;102403.25;;;3.00;90.28
17781;BME280;8498;52.516;13.790;2023-02-04T04:04:25;102419.78;;;3.07;91.00
17781;BME280;8498;52.516;13.790;2023-02-04T04:09:47;102431.06;;;3.18;91.19
17781;BME280;8498;52.516;13.790;2023-02-04T04:15:09;102447.69;;;3.20;90.51
17781;BME280;8498;52.516;13.790;2023-02-04T04:20:32;102459.09;;;3.16;90.06
17781;BME280;8498;52.516;13.790;2023-02-04T04:25:55;102476.66;;;3.09;90.58
17781;BME280;8498;52.516;13.790;2023-02-04T04:31:17;102487.25;;;2.97;91.04
17781;BME280;8498;52.516;13.790;2023-02-04T04:36:40;102500.38;;;2.99;91.15
17781;BME280;8498;52.516;13.790;2023-02-04T04:42:02;102511.69;;;3.10;91.68
17781;BME280;8498;52.516;13.790;2023-02-04T04:47:25;102528.25;;;3.15;91.03
17781;BME280;8498;52.516;13.790;2023-02-04T04:52:47;102538.66;;;3.27;91.08
17781;BME280;8498;52.516;13.790;2023-02-04T04:58:09;102558.66;;;3.43;91.21
17781;BME280;8498;52.516;13.790;2023-02-04T05:03:33;102573.53;;;3.44;90.32
17781;BME280;8498;52.516;13.790;2023-02-04T05:08:55;102587.63;;;3.34;90.54
17781;BME280;8498;52.516;13.790;2023-02-04T05:14:18;102595.63;;;3.19;90.94
17781;BME280;8498;52.516;13.790;2023-02-04T05:19:43;102606.97;;;3.27;91.79
17781;BME280;8498;52.516;13.790;2023-02-04T05:25:05;102617.41;;;3.33;91.57
17781;BME280;8498;52.516;13.790;2023-02-04T05:30:27;102631.41;;;3.35;91.90
17781;BME280;8498;52.516;13.790;2023-02-04T05:35:50;102636.66;;;3.37;91.80
17781;BME280;8498;52.516;13.790;2023-02-04T05:41:12;102647.22;;;3.32;91.60
17781;BME280;8498;52.516;13.790;2023-02-04T05:46:35;102656.00;;;3.28;91.44
17781;BME280;8498;52.516;13.790;2023-02-04T05:51:58;102663.06;;;3.14;92.09
17781;BME280;8498;52.516;13.790;2023-02-04T05:57:20;102684.13;;;3.02;92.25
17781;BME280;8498;52.516;13.790;2023-02-04T06:02:42;102687.66;;;2.98;92.27
17781;BME280;8498;52.516;13.790;2023-02-04T06:08:05;102700.81;;;2.91;92.43
17781;BME280;8498;52.516;13.790;2023-02-04T06:13:27;102720.97;;;2.86;92.43
17781;BME280;8498;52.516;13.790;2023-02-04T06:18:49;102729.75;;;2.79;92.22
17781;BME280;8498;52.516;13.790;2023-02-04T06:24:14;102752.50;;;2.74;92.60
17781;BME280;8498;52.516;13.790;2023-02-04T06:29:36;102750.75;;;2.73;92.54
17781;BME280;8498;52.516;13.790;2023-02-04T06:34:58;102759.50;;;2.75;92.79
17781;BME280;8498;52.516;13.790;2023-02-04T06:40:20;102768.25;;;2.71;93.18
17781;BME280;8498;52.516;13.790;2023-02-04T06:45:43;102774.44;;;2.58;92.93
17781;BME280;8498;52.516;13.790;2023-02-04T06:51:05;102782.28;;;2.63;93.41
17781;BME280;8498;52.516;13.790;2023-02-04T06:56:27;102787.53;;;2.55;93.67
17781;BME280;8498;52.516;13.790;2023-02-04T07:01:51;102782.28;;;2.52;94.43
17781;BME280;8498;52.516;13.790;2023-02-04T07:07:13;102795.41;;;2.50;93.94
17781;BME280;8498;52.516;13.790;2023-02-04T07:12:35;102802.41;;;2.53;93.83
17781;BME280;8498;52.516;13.790;2023-02-04T07:17:58;102807.63;;;2.50;94.59
17781;BME280;8498;52.516;13.790;2023-02-04T07:23:21;102812.91;;;2.48;94.25
17781;BME280;8498;52.516;13.790;2023-02-04T07:28:45;102815.53;;;2.53;94.72
17781;BME280;8498;52.516;13.790;2023-02-04T07:34:08;102834.75;;;2.61;94.35
17781;BME280;8498;52.516;13.790;2023-02-04T07:39:30;102833.91;;;2.56;94.24
17781;BME280;8498;52.516;13.790;2023-02-04T07:44:52;102848.75;;;2.63;94.37
17781;BME280;8498;52.516;13.790;2023-02-04T07:50:15;102860.13;;;2.70;93.47
17781;BME280;8498;52.516;13.790;2023-02-04T07:55:37;102871.47;;;2.70;93.35
17781;BME280;8498;52.516;13.790;2023-02-04T08:01:00;102885.47;;;2.71;93.61
17781;BME280;8498;52.516;13.790;2023-02-04T08:06:22;102906.47;;;2.81;93.75
17781;BME280;8498;52.516;13.790;2023-02-04T08:11:45;102916.13;;;2.90;93.48
17781;BME280;8498;52.516;13.790;2023-02-04T08:17:07;102938.88;;;3.00;93.12
17781;BME280;8498;52.516;13.790;2023-02-04T08:22:30;102940.59;;;3.04;93.10
17781;BME280;8498;52.516;13.790;2023-02-04T08:27:52;102941.47;;;3.02;92.95
17781;BME280;8498;52.516;13.790;2023-02-04T08:33:14;102944.09;;;3.18;92.96
17781;BME280;8498;52.516;13.790;2023-02-04T08:38:37;102954.56;;;3.35;92.43
17781;BME280;8498;52.516;13.790;2023-02-04T08:43:59;102953.72;;;3.31;92.00
17781;BME280;8498;52.516;13.790;2023-02-04T08:49:21;102954.59;;;3.32;91.80
17781;BME280;8498;52.516;13.790;2023-02-04T08:54:44;102950.16;;;3.46;91.81
17781;BME280;8498;52.516;13.790;2023-02-04T09:00:06;102964.13;;;3.63;91.13
17781;BME280;8498;52.516;13.790;2023-02-04T09:05:30;102972.00;;;3.73;90.01
17781;BME280;8498;52.516;13.790;2023-02-04T09:10:52;102980.69;;;3.85;89.13
17781;BME280;8498;52.516;13.790;2023-02-04T09:16:14;102983.28;;;3.96;87.99
17781;BME280;8498;52.516;13.790;2023-02-04T09:21:38;102995.50;;;4.12;86.97
17781;BME280;8498;52.516;13.790;2023-02-04T09:27:01;103005.88;;;4.39;86.33
17781;BME280;8498;52.516;13.790;2023-02-04T09:32:23;103009.34;;;4.48;85.19
17781;BME280;8498;52.516;13.790;2023-02-04T09:37:46;103018.84;;;4.73;84.66
17781;BME280;8498;52.516;13.790;2023-02-04T09:43:12;103027.47;;;4.96;83.37
17781;BME280;8498;52.516;13.790;2023-02-04T09:48:37;103036.97;;;5.15;82.82
17781;BME280;8498;52.516;13.790;2023-02-04T09:54:06;103042.16;;;5.28;80.70
17781;BME280;8498;52.516;13.790;2023-02-04T09:59:30;103040.16;;;5.51;79.53
17781;BME280;8498;52.516;13.790;2023-02-04T10:04:56;103045.31;;;5.66;78.38
17781;BME280;8498;52.516;13.790;2023-02-04T10:10:21;103048.16;;;5.42;76.97
17781;BME280;8498;52.516;13.790;2023-02-04T10:15:46;103052.34;;;5.67;76.00
17781;BME280;8498;52.516;13.790;2023-02-04T10:21:20;103047.84;;;5.75;74.70
17781;BME280;8498;52.516;13.790;2023-02-04T10:26:42;103055.75;;;5.77;75.09
17781;BME280;8498;52.516;13.790;2023-02-04T10:32:23;103064.75;;;5.58;73.85
17781;BME280;8498;52.516;13.790;2023-02-04T10:37:47;103074.44;;;5.54;74.30
17781;BME280;8498;52.516;13.790;2023-02-04T10:43:15;103081.63;;;5.37;73.66
17781;BME280;8498;52.516;13.790;2023-02-04T10:48:40;103072.88;;;5.30;73.23
17781;BME280;8498;52.516;13.790;2023-02-04T10:54:07;103073.44;;;5.64;72.14
17781;BME280;8498;52.516;13.790;2023-02-04T10:59:54;103074.78;;;6.08;69.69
17781;BME280;8498;52.516;13.790;2023-02-04T11:05:20;103077.72;;;5.77;70.58
17781;BME280;8498;52.516;13.790;2023-02-04T11:10:43;103083.78;;;5.92;69.58
17781;BME280;8498;52.516;13.790;2023-02-04T11:21:44;103079.63;;;6.44;66.28
17781;BME280;8498;52.516;13.790;2023-02-04T11:27:20;103083.84;;;6.59;65.21
17781;BME280;8498;52.516;13.790;2023-02-04T11:32:43;103089.56;;;6.90;62.22
17781;BME280;8498;52.516;13.790;2023-02-04T11:38:22;103092.94;;;6.37;63.01
17781;BME280;8498;52.516;13.790;2023-02-04T11:43:49;103101.06;;;6.17;64.22
17781;BME280;8498;52.516;13.790;2023-02-04T11:49:18;103107.47;;;5.96;63.09
17781;BME280;8498;52.516;13.790;2023-02-04T11:54:40;103113.69;;;5.89;63.75
17781;BME280;8498;52.516;13.790;2023-02-04T12:00:03;103126.25;;;5.60;64.32
17781;BME280;8498;52.516;13.790;2023-02-04T12:05:45;103121.03;;;5.50;65.20
17781;BME280;8498;52.516;13.790;2023-02-04T12:11:23;103117.72;;;5.29;63.85
17781;BME280;8498;52.516;13.790;2023-02-04T12:16:51;103116.00;;;6.90;59.22
17781;BME280;8498;52.516;13.790;2023-02-04T12:22:13;103116.00;;;8.45;56.49
17781;BME280;8498;52.516;13.790;2023-02-04T12:27:36;103119.47;;;7.50;54.61
17781;BME280;8498;52.516;13.790;2023-02-04T12:32:59;103123.03;;;6.92;56.16
17781;BME280;8498;52.516;13.790;2023-02-04T12:38:22;103127.75;;;6.66;58.77
17781;BME280;8498;52.516;13.790;2023-02-04T12:43:45;103137.81;;;7.06;59.08
17781;BME280;8498;52.516;13.790;2023-02-04T12:49:07;103131.34;;;7.26;55.13
17781;BME280;8498;52.516;13.790;2023-02-04T12:54:30;103126.84;;;7.30;54.94
17781;BME280;8498;52.516;13.790;2023-02-04T12:59:52;103141.03;;;6.61;57.79
17781;BME280;8498;52.516;13.790;2023-02-04T13:05:19;103139.34;;;6.54;58.83
17781;BME280;8498;52.516;13.790;2023-02-04T13:10:41;103146.31;;;6.61;59.84
17781;BME280;8498;52.516;13.790;2023-02-04T13:16:04;103146.66;;;7.60;56.12
17781;BME280;8498;52.516;13.790;2023-02-04T13:21:26;103157.50;;;7.45;55.32
17781;BME280;8498;52.516;13.790;2023-02-04T13:26:49;103150.72;;;6.61;57.12
17781;BME280;8498;52.516;13.790;2023-02-04T13:32:11;103167.19;;;6.03;55.71
17781;BME280;8498;52.516;13.790;2023-02-04T13:37:34;103166.44;;;5.87;56.34
17781;BME280;8498;52.516;13.790;2023-02-04T13:42:56;103178.78;;;5.88;56.35
17781;BME280;8498;52.516;13.790;2023-02-04T13:48:18;103175.38;;;6.63;53.88
17781;BME280;8498;52.516;13.790;2023-02-04T13:53:41;103174.25;;;6.81;52.51
17781;BME280;8498;52.516;13.790;2023-02-04T13:59:03;103169.59;;;6.99;53.07
17781;BME280;8498;52.516;13.790;2023-02-04T14:04:26;103175.75;;;7.60;52.92
17781;BME280;8498;52.516;13.790;2023-02-04T14:09:48;103175.09;;;7.46;52.93
17781;BME280;8498;52.516;13.790;2023-02-04T14:15:11;103179.16;;;7.10;52.64
17781;BME280;8498;52.516;13.790;2023-02-04T14:20:34;103173.50;;;6.73;53.14
17781;BME280;8498;52.516;13.790;2023-02-04T14:25:56;103178.31;;;6.34;53.82
17781;BME280;8498;52.516;13.790;2023-02-04T14:31:19;103192.75;;;6.01;55.16
17781;BME280;8498;52.516;13.790;2023-02-04T14:36:43;103211.53;;;5.54;55.54
17781;BME280;8498;52.516;13.790;2023-02-04T14:42:05;103221.31;;;5.37;56.56
17781;BME280;8498;52.516;13.790;2023-02-04T14:47:28;103226.72;;;5.12;56.92
17781;BME280;8498;52.516;13.790;2023-02-04T14:52:50;103224.97;;;5.11;58.68
17781;BME280;8498;52.516;13.790;2023-02-04T14:58:12;103219.75;;;5.05;58.16
17781;BME280;8498;52.516;13.790;2023-02-04T15:03:35;103233.84;;;4.92;58.25
17781;BME280;8498;52.516;13.790;2023-02-04T15:08:57;103226.84;;;4.79;59.31
17781;BME280;8498;52.516;13.790;2023-02-04T15:14:20;103244.47;;;4.65;59.82
17781;BME280;8498;52.516;13.790;2023-02-04T15:19:45;103250.66;;;4.44;59.18
17781;BME280;8498;52.516;13.790;2023-02-04T15:25:09;103244.53;;;4.31;58.07
17781;BME280;8498;52.516;13.790;2023-02-04T15:30:32;103248.03;;;4.18;60.32
17781;BME280;8498;52.516;13.790;2023-02-04T15:35:55;103250.69;;;4.03;61.87
17781;BME280;8498;52.516;13.790;2023-02-04T15:41:17;103252.44;;;3.89;62.42
17781;BME280;8498;52.516;13.790;2023-02-04T15:46:40;103252.41;;;3.84;63.54
17781;BME280;8498;52.516;13.790;2023-02-04T15:52:02;103256.81;;;3.78;62.62
17781;BME280;8498;52.516;13.790;2023-02-04T15:57:30;103270.81;;;3.61;64.82
17781;BME280;8498;52.516;13.790;2023-02-04T16:02:52;103273.38;;;3.46;64.48
17781;BME280;8498;52.516;13.790;2023-02-04T16:08:15;103284.72;;;3.33;64.77
17781;BME280;8498;52.516;13.790;2023-02-04T16:13:37;103293.47;;;3.20;65.98
17781;BME280;8498;52.516;13.790;2023-02-04T16:18:59;103293.38;;;3.03;67.60
17781;BME280;8498;52.516;13.790;2023-02-04T16:24:22;103302.88;;;2.80;69.34
17781;BME280;8498;52.516;13.790;2023-02-04T16:29:44;103297.63;;;2.77;69.38
17781;BME280;8498;52.516;13.790;2023-02-04T16:35:07;103301.91;;;2.64;68.99
17781;BME280;8498;52.516;13.790;2023-02-04T16:40:30;103306.19;;;2.48;70.24
17781;BME280;8498;52.516;13.790;2023-02-04T16:45:53;103316.59;;;2.41;70.36
17781;BME280;8498;52.516;13.790;2023-02-04T16:51:16;103309.53;;;2.28;69.93
17781;BME280;8498;52.516;13.790;2023-02-04T16:56:39;103321.66;;;2.16;71.12
17781;BME280;8498;52.516;13.790;2023-02-04T17:02:01;103326.81;;;2.06;71.41
17781;BME280;8498;52.516;13.790;2023-02-04T17:07:24;103322.34;;;1.96;71.12
17781;BME280;8498;52.516;13.790;2023-02-04T17:12:47;103327.47;;;1.83;72.02
17781;BME280;8498;52.516;13.790;2023-02-04T17:18:09;103326.47;;;1.72;72.85
17781;BME280;8498;52.516;13.790;2023-02-04T17:23:32;103345.50;;;1.58;73.09
17781;BME280;8498;52.516;13.790;2023-02-04T17:28:56;103341.81;;;1.40;73.79
17781;BME280;8498;52.516;13.790;2023-02-04T17:34:19;103344.22;;;1.25;74.69
17781;BME280;8498;52.516;13.790;2023-02-04T17:39:41;103347.69;;;1.21;75.03
17781;BME280;8498;52.516;13.790;2023-02-04T17:45:04;103351.22;;;1.23;72.98
17781;BME280;8498;52.516;13.790;2023-02-04T17:50:28;103360.91;;;1.32;72.99
17781;BME280;8498;52.516;13.790;2023-02-04T17:55:50;103368.63;;;1.21;74.21
17781;BME280;8498;52.516;13.790;2023-02-04T18:01:14;103369.38;;;1.11;73.60
17781;BME280;8498;52.516;13.790;2023-02-04T18:06:38;103373.75;;;1.15;73.21
17781;BME280;8498;52.516;13.790;2023-02-04T18:12:09;103366.78;;;1.14;71.90
17781;BME280;8498;52.516;13.790;2023-02-04T18:17:33;103384.25;;;1.14;72.22
17781;BME280;8498;52.516;13.790;2023-02-04T18:22:59;103392.88;;;1.08;71.66
17781;BME280;8498;52.516;13.790;2023-02-04T18:28:25;103384.09;;;1.03;71.89
17781;BME280;8498;52.516;13.790;2023-02-04T18:33:48;103379.69;;;1.00;71.18
17781;BME280;8498;52.516;13.790;2023-02-04T18:39:17;103388.31;;;0.93;71.13
17781;BME280;8498;52.516;13.790;2023-02-04T18:44:40;103396.91;;;0.86;72.09
17781;BME280;8498;52.516;13.790;2023-02-04T18:55:47;103408.13;;;0.78;74.03
17781;BME280;8498;52.516;13.790;2023-02-04T19:06:38;103412.28;;;0.66;73.88
17781;BME280;8498;52.516;13.790;2023-02-04T19:12:16;103414.84;;;0.63;75.05
17781;BME280;8498;52.516;13.790;2023-02-04T19:17:43;103409.44;;;0.51;75.88
17781;BME280;8498;52.516;13.790;2023-02-04T19:23:13;103419.84;;;0.48;76.06
17781;BME280;8498;52.516;13.790;2023-02-04T19:28:36;103421.41;;;0.39;76.51
17781;BME280;8498;52.516;13.790;2023-02-04T19:34:00;103429.13;;;0.31;77.06
17781;BME280;8498;52.516;13.790;2023-02-04T19:39:38;103436.97;;;0.31;77.13
17781;BME280;8498;52.516;13.790;2023-02-04T19:45:21;103436.69;;;0.16;77.22
17781;BME280;8498;52.516;13.790;2023-02-04T19:50:44;103431.16;;;0.00;78.64
17781;BME280;8498;52.516;13.790;2023-02-04T19:56:34;103435.34;;;-0.08;79.48
17781;BME280;8498;52.516;13.790;2023-02-04T20:07:31;103448.31;;;-0.14;78.93
17781;BME280;8498;52.516;13.790;2023-02-04T20:13:09;103446.22;;;-0.30;79.48
17781;BME280;8498;52.516;13.790;2023-02-04T20:18:33;103447.00;;;-0.34;80.08
17781;BME280;8498;52.516;13.790;2023-02-04T20:23:55;103444.22;;;-0.43;80.00
17781;BME280;8498;52.516;13.790;2023-02-04T20:29:20;103445.91;;;-0.45;80.16
17781;BME280;8498;52.516;13.790;2023-02-04T20:34:43;103453.00;;;-0.38;79.23
17781;BME280;8498;52.516;13.790;2023-02-04T20:40:30;103464.22;;;-0.44;79.65
17781;BME280;8498;52.516;13.790;2023-02-04T20:45:58;103472.63;;;-0.57;80.05
17781;BME280;8498;52.516;13.790;2023-02-04T20:51:23;103474.19;;;-0.65;80.61
17781;BME280;8498;52.516;13.790;2023-02-04T20:56:46;103474.03;;;-0.71;80.15
17781;BME280;8498;52.516;13.790;2023-02-04T21:02:18;103477.28;;;-0.81;81.38
17781;BME280;8498;52.516;13.790;2023-02-04T21:07:41;103482.63;;;-0.77;81.08
17781;BME280;8498;52.516;13.790;2023-02-04T21:13:04;103479.84;;;-0.83;81.52
17781;BME280;8498;52.516;13.790;2023-02-04T21:18:27;103479.97;;;-0.78;80.53
17781;BME280;8498;52.516;13.790;2023-02-04T21:23:50;103481.47;;;-0.88;80.78
17781;BME280;8498;52.516;13.790;2023-02-04T21:29:13;103484.72;;;-0.98;81.13
17781;BME280;8498;52.516;13.790;2023-02-04T21:34:35;103480.91;;;-1.11;81.69
17781;BME280;8498;52.516;13.790;2023-02-04T21:39:57;103486.59;;;-1.27;82.75
17781;BME280;8498;52.516;13.790;2023-02-04T21:45:21;103490.81;;;-1.32;82.83
17781;BME280;8498;52.516;13.790;2023-02-04T21:50:43;103489.22;;;-1.27;83.00
17781;BME280;8498;52.516;13.790;2023-02-04T21:56:07;103504.63;;;-1.34;82.84
17781;BME280;8498;52.516;13.790;2023-02-04T22:01:29;103504.44;;;-1.42;83.29
17781;BME280;8498;52.516;13.790;2023-02-04T22:06:52;103495.69;;;-1.45;83.90
17781;BME280;8498;52.516;13.790;2023-02-04T22:12:17;103504.25;;;-1.50;84.06
17781;BME280;8498;52.516;13.790;2023-02-04T22:17:40;103499.19;;;-1.43;83.36
17781;BME280;8498;52.516;13.790;2023-02-04T22:23:02;103501.44;;;-1.57;83.38
17781;BME280;8498;52.516;13.790;2023-02-04T22:28:24;103497.66;;;-1.68;84.72
17781;BME280;8498;52.516;13.790;2023-02-04T22:33:47;103489.41;;;-1.52;83.58
17781;BME280;8498;52.516;13.790;2023-02-04T22:39:09;103481.63;;;-1.51;82.63
17781;BME280;8498;52.516;13.790;2023-02-04T22:44:31;103476.00;;;-1.66;83.74
17781;BME280;8498;52.516;13.790;2023-02-04T22:49:54;103483.56;;;-1.75;83.99
17781;BME280;8498;52.516;13.790;2023-02-04T22:55:16;103496.69;;;-1.72;84.04
17781;BME280;8498;52.516;13.790;2023-02-04T23:00:39;103491.81;;;-1.60;83.23
17781;BME280;8498;52.516;13.790;2023-02-04T23:06:03;103498.63;;;-1.65;84.26
17781;BME280;8498;52.516;13.790;2023-02-04T23:11:26;103498.00;;;-1.55;84.23
17781;BME280;8498;52.516;13.790;2023-02-04T23:16:48;103498.84;;;-1.57;84.30
17781;BME280;8498;52.516;13.790;2023-02-04T23:22:12;103498.16;;;-1.50;84.75
17781;BME280;8498;52.516;13.790;2023-02-04T23:27:35;103499.91;;;-1.49;84.36
17781;BME280;8498;52.516;13.790;2023-02-04T23:32:57;103499.88;;;-1.51;84.40
17781;BME280;8498;52.516;13.790;2023-02-04T23:38:22;103491.25;;;-1.48;85.28
17781;BME280;8498;52.516;13.790;2023-02-04T23:43:44;103479.53;;;-1.31;85.10
17781;BME280;8498;52.516;13.790;2023-02-04T23:49:06;103492.53;;;-1.32;84.80
17781;BME280;8498;52.516;13.790;2023-02-04T23:54:29;103491.13;;;-1.20;84.03
17781;BME280;8498;52.516;13.790;2023-02-04T23:59:51;103477.28;;;-1.17;83.00
